createdAt,value
2023-11-29T00:00:51.353Z,9.32
2023-11-29T00:03:18.701Z,9.30
2023-11-29T00:05:46.617Z,8.90
2023-11-29T00:08:14.228Z,10.00
2023-11-29T00:10:41.722Z,9.57
2023-11-29T00:13:09.089Z,8.98
2023-11-29T00:15:36.333Z,8.68
2023-11-29T00:18:03.782Z,9.20
2023-11-29T00:20:33.866Z,9.05
2023-11-29T00:23:01.180Z,8.63
2023-11-29T00:25:28.493Z,9.57
2023-11-29T00:27:56.163Z,9.15
2023-11-29T00:30:23.752Z,8.68
2023-11-29T00:32:51.983Z,9.38
2023-11-29T00:35:19.587Z,9.45
2023-11-29T00:37:47.012Z,9.57
2023-11-29T00:40:14.409Z,7.97
2023-11-29T00:42:43.795Z,8.85
2023-11-29T00:45:12.408Z,9.68
2023-11-29T00:47:40.249Z,9.27
2023-11-29T00:50:08.797Z,8.82
2023-11-29T00:52:36.399Z,9.23
2023-11-29T00:55:03.992Z,8.70
2023-11-29T00:57:31.350Z,8.55
2023-11-29T00:59:58.683Z,9.32
2023-11-29T01:02:26.076Z,9.02
2023-11-29T01:04:53.604Z,8.82
2023-11-29T01:07:20.966Z,8.80
2023-11-29T01:09:48.323Z,9.40
2023-11-29T01:12:16.638Z,8.75
2023-11-29T01:14:44.120Z,8.75
2023-11-29T01:17:11.466Z,9.18
2023-11-29T01:19:38.860Z,8.98
2023-11-29T01:22:06.777Z,9.02
2023-11-29T01:24:34.470Z,8.35
2023-11-29T01:27:01.914Z,8.48
2023-11-29T01:29:29.284Z,8.25
2023-11-29T01:31:56.594Z,8.35
2023-11-29T01:34:23.923Z,9.18
2023-11-29T01:36:51.472Z,8.65
2023-11-29T01:39:18.986Z,9.35
2023-11-29T01:41:46.380Z,8.75
2023-11-29T01:44:13.896Z,8.13
2023-11-29T01:46:42.301Z,8.57
2023-11-29T01:49:09.958Z,8.75
2023-11-29T01:51:38.086Z,8.35
2023-11-29T01:54:06.202Z,8.80
2023-11-29T01:56:35.004Z,9.23
2023-11-29T01:59:02.481Z,8.60
2023-11-29T02:01:29.945Z,9.27
2023-11-29T02:03:57.356Z,8.23
2023-11-29T02:06:25.371Z,8.18
2023-11-29T02:08:52.815Z,8.60
2023-11-29T02:11:21.778Z,7.63
2023-11-29T02:13:49.741Z,8.38
2023-11-29T02:16:17.444Z,8.68
2023-11-29T02:18:44.806Z,8.40
2023-11-29T02:21:12.253Z,8.50
2023-11-29T02:24:02.275Z,7.85
2023-11-29T02:26:30.122Z,8.05
2023-11-29T02:28:57.494Z,8.55
2023-11-29T02:31:24.884Z,8.00
2023-11-29T02:33:53.040Z,8.02
2023-11-29T02:36:20.312Z,7.18
2023-11-29T02:38:47.634Z,8.00
2023-11-29T02:41:15.284Z,8.00
2023-11-29T02:43:42.726Z,8.00
2023-11-29T02:46:10.023Z,7.30
2023-11-29T02:48:37.472Z,8.05
2023-11-29T02:51:05.029Z,8.40
2023-11-29T02:53:32.409Z,8.20
2023-11-29T02:55:59.761Z,7.88
2023-11-29T02:58:27.089Z,7.80
2023-11-29T03:00:54.558Z,7.85
2023-11-29T03:03:21.943Z,8.13
2023-11-29T03:05:50.402Z,7.47
2023-11-29T03:08:19.460Z,7.88
2023-11-29T03:10:48.567Z,8.75
2023-11-29T03:13:16.058Z,7.07
2023-11-29T03:15:43.415Z,7.35
2023-11-29T03:18:10.895Z,7.65
2023-11-29T03:20:38.301Z,7.80
2023-11-29T03:23:05.692Z,7.38
2023-11-29T03:25:33.021Z,7.10
2023-11-29T03:28:00.405Z,7.15
2023-11-29T03:30:27.717Z,6.72
2023-11-29T03:32:55.100Z,7.38
2023-11-29T03:35:22.594Z,7.38
2023-11-29T03:37:49.982Z,6.88
2023-11-29T03:40:17.295Z,6.93
2023-11-29T03:42:44.605Z,7.15
2023-11-29T03:45:12.076Z,7.28
2023-11-29T03:47:39.528Z,6.70
2023-11-29T03:50:07.967Z,7.28
2023-11-29T03:52:35.331Z,6.13
2023-11-29T03:55:03.124Z,6.88
2023-11-29T03:57:30.577Z,6.93
2023-11-29T03:59:57.909Z,7.47
2023-11-29T04:02:25.291Z,7.13
2023-11-29T04:04:52.794Z,6.85
2023-11-29T04:07:20.135Z,6.80
2023-11-29T04:09:49.773Z,6.88
2023-11-29T04:12:22.129Z,6.95
2023-11-29T04:14:49.510Z,7.00
2023-11-29T04:17:16.835Z,5.85
2023-11-29T04:19:44.389Z,6.47
2023-11-29T04:22:11.749Z,6.07
2023-11-29T04:24:39.047Z,6.38
2023-11-29T04:27:06.549Z,6.63
2023-11-29T04:29:33.990Z,7.07
2023-11-29T04:32:01.378Z,6.60
2023-11-29T04:34:36.470Z,6.28
2023-11-29T04:37:08.674Z,6.13
2023-11-29T04:39:36.056Z,7.00
2023-11-29T04:42:03.477Z,6.38
2023-11-29T04:44:30.832Z,6.57
2023-11-29T04:46:58.768Z,6.22
2023-11-29T04:49:26.075Z,6.63
2023-11-29T04:51:53.400Z,5.82
2023-11-29T04:54:20.729Z,6.50
2023-11-29T04:56:48.191Z,6.47
2023-11-29T04:59:15.647Z,6.32
2023-11-29T05:01:43.156Z,5.88
2023-11-29T05:04:10.738Z,6.10
2023-11-29T05:06:38.135Z,5.70
2023-11-29T05:09:07.569Z,6.60
2023-11-29T05:11:35.175Z,5.75
2023-11-29T05:14:02.515Z,6.00
2023-11-29T05:16:29.938Z,5.53
2023-11-29T05:18:57.276Z,5.60
2023-11-29T05:21:24.733Z,5.47
2023-11-29T05:23:52.089Z,5.45
2023-11-29T05:26:19.485Z,5.95
2023-11-29T05:28:47.882Z,5.55
2023-11-29T05:31:16.074Z,6.00
2023-11-29T05:33:43.458Z,5.50
2023-11-29T05:36:11.303Z,5.40
2023-11-29T05:38:38.657Z,5.90
2023-11-29T05:41:06.556Z,5.28
2023-11-29T05:43:33.897Z,6.03
2023-11-29T05:46:01.267Z,5.03
2023-11-29T05:48:28.732Z,5.32
2023-11-29T05:50:56.194Z,5.22
2023-11-29T05:53:24.688Z,5.70
2023-11-29T05:55:52.190Z,5.63
2023-11-29T05:58:19.554Z,4.93
2023-11-29T06:00:46.925Z,4.88
2023-11-29T06:03:14.302Z,5.05
2023-11-29T06:05:41.643Z,5.32
2023-11-29T06:08:08.896Z,4.75
2023-11-29T06:10:36.261Z,5.18
2023-11-29T06:13:04.398Z,4.85
2023-11-29T06:15:32.659Z,4.57
2023-11-29T06:18:01.917Z,5.13
2023-11-29T06:20:29.438Z,4.45
2023-11-29T06:22:56.848Z,4.90
2023-11-29T06:25:24.837Z,4.15
2023-11-29T06:27:52.147Z,4.63
2023-11-29T06:30:19.521Z,4.38
2023-11-29T06:32:46.975Z,4.47
2023-11-29T06:35:14.906Z,4.90
2023-11-29T06:37:46.946Z,5.70
2023-11-29T06:40:18.421Z,4.68
2023-11-29T06:42:48.942Z,4.90
2023-11-29T06:45:20.637Z,4.40
2023-11-29T06:47:48.699Z,4.00
2023-11-29T06:50:16.556Z,4.32
2023-11-29T06:52:46.540Z,4.63
2023-11-29T06:55:15.609Z,6.55
2023-11-29T06:57:46.147Z,8.55
2023-11-29T07:00:17.997Z,11.65
2023-11-29T07:02:45.974Z,12.25
2023-11-29T07:05:13.584Z,11.77
2023-11-29T07:07:40.902Z,11.70
2023-11-29T07:10:09.316Z,10.82
2023-11-29T07:12:37.000Z,11.48
2023-11-29T07:15:05.833Z,11.80
2023-11-29T07:17:33.572Z,10.23
2023-11-29T07:20:05.421Z,10.77
2023-11-29T07:22:35.798Z,10.35
2023-11-29T07:25:03.178Z,10.10
2023-11-29T07:27:30.477Z,10.80
2023-11-29T07:29:57.956Z,9.52
2023-11-29T07:32:25.457Z,9.55
2023-11-29T07:34:53.278Z,10.65
2023-11-29T07:37:21.889Z,9.40
2023-11-29T07:39:49.722Z,8.30
2023-11-29T07:42:17.201Z,8.73
2023-11-29T07:44:44.764Z,9.27
2023-11-29T07:47:12.572Z,9.40
2023-11-29T07:49:39.902Z,8.23
2023-11-29T07:52:07.682Z,8.70
2023-11-29T07:54:35.065Z,8.43
2023-11-29T07:57:02.492Z,8.35
2023-11-29T07:59:29.857Z,8.43
2023-11-29T08:01:57.217Z,10.70
2023-11-29T08:04:25.459Z,15.00
2023-11-29T08:06:52.884Z,18.42
2023-11-29T08:09:20.521Z,19.10
2023-11-29T08:11:47.882Z,16.85
2023-11-29T08:14:15.308Z,16.52
2023-11-29T08:16:42.690Z,13.60
2023-11-29T08:19:10.098Z,14.43
2023-11-29T08:21:37.989Z,12.68
2023-11-29T08:24:05.819Z,11.57
2023-11-29T08:26:33.309Z,12.70
2023-11-29T08:29:00.740Z,11.43
2023-11-29T08:31:28.424Z,11.38
2023-11-29T08:33:55.771Z,10.70
2023-11-29T08:36:23.240Z,10.07
2023-11-29T08:38:53.008Z,11.05
2023-11-29T08:41:20.849Z,10.68
2023-11-29T08:43:48.542Z,10.05
2023-11-29T08:46:16.063Z,11.52
2023-11-29T08:48:44.072Z,9.95
2023-11-29T08:51:11.636Z,10.05
2023-11-29T08:53:43.468Z,10.02
2023-11-29T08:56:19.426Z,9.02
2023-11-29T08:58:48.542Z,9.10
2023-11-29T09:01:20.533Z,10.07
2023-11-29T09:03:49.483Z,8.55
2023-11-29T09:06:17.493Z,8.52
2023-11-29T09:08:45.251Z,8.75
2023-11-29T09:11:12.981Z,7.85
2023-11-29T09:13:40.351Z,7.38
2023-11-29T09:16:08.819Z,7.50
2023-11-29T09:18:38.227Z,7.57
2023-11-29T09:21:06.013Z,7.55
2023-11-29T09:23:36.252Z,7.07
2023-11-29T09:26:03.783Z,7.03
2023-11-29T09:28:31.568Z,6.55
2023-11-29T09:31:02.200Z,6.75
2023-11-29T09:33:30.827Z,9.55
2023-11-29T09:35:58.651Z,8.38
2023-11-29T09:38:26.296Z,8.35
2023-11-29T09:40:53.747Z,8.15
2023-11-29T09:43:21.227Z,8.18
2023-11-29T09:45:48.942Z,7.90
2023-11-29T09:48:16.339Z,6.97
2023-11-29T09:50:44.400Z,7.50
2023-11-29T09:53:14.017Z,8.07
2023-11-29T09:55:41.370Z,7.40
2023-11-29T09:58:08.697Z,8.35
2023-11-29T10:00:37.083Z,9.10
2023-11-29T10:03:14.842Z,8.13
2023-11-29T10:05:46.937Z,11.57
2023-11-29T10:08:17.499Z,12.82
2023-11-29T10:10:45.759Z,13.43
2023-11-29T10:13:19.874Z,13.88
2023-11-29T10:15:49.675Z,13.77
2023-11-29T10:18:20.077Z,13.98
2023-11-29T10:20:56.278Z,12.95
2023-11-29T10:23:33.019Z,13.43
2023-11-29T10:26:00.636Z,13.35
2023-11-29T10:28:27.985Z,12.93
2023-11-29T10:30:55.837Z,9.32
2023-11-29T10:33:23.984Z,7.95
2023-11-29T10:35:51.999Z,7.57
2023-11-29T10:38:21.587Z,7.93
2023-11-29T10:40:50.081Z,9.15
2023-11-29T10:43:24.792Z,10.02
2023-11-29T10:46:00.405Z,9.70
2023-11-29T10:48:32.244Z,10.98
2023-11-29T10:51:00.171Z,10.27
2023-11-29T10:53:30.957Z,10.57
2023-11-29T10:55:59.189Z,10.45
2023-11-29T10:58:39.967Z,9.57
2023-11-29T11:01:09.180Z,10.75
2023-11-29T11:03:44.350Z,10.45
2023-11-29T11:06:24.610Z,9.65
2023-11-29T11:08:53.525Z,10.57
2023-11-29T11:11:43.202Z,10.93
2023-11-29T11:14:34.290Z,11.57
2023-11-29T11:17:08.165Z,9.88
2023-11-29T11:19:37.574Z,8.95
2023-11-29T11:22:13.646Z,9.95
2023-11-29T11:25:05.517Z,9.55
2023-11-29T11:27:35.575Z,9.25
2023-11-29T11:30:29.606Z,9.25
2023-11-29T11:33:00.881Z,8.90
2023-11-29T11:35:37.811Z,9.27
2023-11-29T11:38:10.591Z,9.15
2023-11-29T11:40:39.676Z,8.38
2023-11-29T11:43:07.932Z,9.10
2023-11-29T11:45:37.934Z,9.20
2023-11-29T11:48:06.806Z,8.55
2023-11-29T11:50:35.224Z,8.63
2023-11-29T11:53:04.894Z,7.55
2023-11-29T11:55:34.316Z,7.55
2023-11-29T11:58:05.508Z,8.23
2023-11-29T12:00:33.041Z,7.53
2023-11-29T12:03:02.371Z,8.05
2023-11-29T12:05:30.661Z,7.18
2023-11-29T12:07:59.112Z,7.90
2023-11-29T12:10:26.593Z,7.43
2023-11-29T12:12:55.267Z,8.07
2023-11-29T12:15:22.849Z,7.95
2023-11-29T12:17:50.474Z,6.85
2023-11-29T12:20:18.230Z,7.15
2023-11-29T12:22:49.008Z,7.10
2023-11-29T12:25:21.286Z,7.22
2023-11-29T12:27:52.306Z,7.18
2023-11-29T12:30:20.978Z,6.47
2023-11-29T12:32:49.210Z,7.40
2023-11-29T12:35:17.672Z,7.30
2023-11-29T12:37:48.256Z,6.68
2023-11-29T12:40:17.933Z,7.28
2023-11-29T12:42:46.544Z,6.28
2023-11-29T12:45:18.209Z,6.82
2023-11-29T12:47:45.790Z,6.50
2023-11-29T12:50:13.850Z,6.97
2023-11-29T12:52:41.924Z,6.55
2023-11-29T12:55:09.688Z,7.68
2023-11-29T12:57:37.759Z,6.35
2023-11-29T13:00:06.645Z,6.13
2023-11-29T13:02:34.248Z,6.32
2023-11-29T13:05:01.920Z,6.20
2023-11-29T13:07:29.334Z,6.05
2023-11-29T13:09:56.707Z,7.82
2023-11-29T13:12:24.060Z,6.95
2023-11-29T13:14:51.481Z,6.60
2023-11-29T13:17:22.211Z,5.53
2023-11-29T13:19:49.878Z,6.40
2023-11-29T13:22:17.239Z,5.85
2023-11-29T13:24:44.829Z,5.65
2023-11-29T13:27:13.815Z,5.50
2023-11-29T13:29:43.421Z,5.70
2023-11-29T13:32:12.073Z,6.38
2023-11-29T13:34:39.673Z,6.15
2023-11-29T13:37:07.027Z,5.50
2023-11-29T13:39:34.504Z,5.68
2023-11-29T13:42:02.039Z,5.70
2023-11-29T13:44:29.826Z,6.38
2023-11-29T13:46:57.685Z,5.40
2023-11-29T13:49:25.793Z,5.90
2023-11-29T13:52:04.235Z,5.90
2023-11-29T13:54:40.431Z,6.05
2023-11-29T13:57:07.950Z,5.80
2023-11-29T13:59:37.718Z,5.60
2023-11-29T14:02:14.388Z,5.30
2023-11-29T14:04:45.541Z,5.53
2023-11-29T14:07:13.120Z,5.68
2023-11-29T14:09:40.387Z,5.93
2023-11-29T14:12:07.927Z,6.05
2023-11-29T14:14:35.353Z,5.57
2023-11-29T14:17:02.750Z,5.72
2023-11-29T14:19:30.167Z,5.28
2023-11-29T14:21:57.511Z,5.35
2023-11-29T14:24:25.120Z,5.50
2023-11-29T14:26:54.449Z,5.22
2023-11-29T14:29:23.926Z,5.32
2023-11-29T14:31:52.992Z,5.63
2023-11-29T14:34:22.376Z,6.10
2023-11-29T14:36:54.945Z,5.40
2023-11-29T14:39:23.205Z,5.63
2023-11-29T14:41:50.566Z,5.20
2023-11-29T14:44:18.366Z,5.90
2023-11-29T14:46:45.753Z,5.05
2023-11-29T14:49:16.848Z,5.30
2023-11-29T14:51:51.288Z,5.18
2023-11-29T14:54:21.592Z,5.00
2023-11-29T14:56:49.058Z,5.07
2023-11-29T14:59:16.893Z,5.28
2023-11-29T15:01:44.209Z,5.78
2023-11-29T15:04:11.600Z,5.47
2023-11-29T15:06:39.156Z,5.85
2023-11-29T15:09:06.598Z,5.40
2023-11-29T15:11:36.071Z,5.80
2023-11-29T15:14:04.123Z,4.80
2023-11-29T15:16:31.595Z,6.03
2023-11-29T15:18:59.173Z,4.78
2023-11-29T15:21:26.656Z,5.80
2023-11-29T15:23:54.533Z,6.30
2023-11-29T15:26:22.708Z,5.55
2023-11-29T15:28:49.939Z,6.00
2023-11-29T15:31:17.261Z,6.07
2023-11-29T15:33:44.798Z,5.88
2023-11-29T15:36:12.527Z,5.93
2023-11-29T15:38:39.951Z,6.10
2023-11-29T15:41:07.330Z,5.95
2023-11-29T15:43:34.758Z,5.70
2023-11-29T15:46:02.236Z,6.57
2023-11-29T15:48:29.851Z,6.03
2023-11-29T15:50:57.318Z,5.93
2023-11-29T15:53:24.736Z,5.88
2023-11-29T15:55:52.431Z,6.25
2023-11-29T15:58:19.847Z,6.13
2023-11-29T16:00:47.163Z,6.30
2023-11-29T16:03:14.630Z,4.97
2023-11-29T16:05:43.561Z,5.55
2023-11-29T16:08:11.899Z,6.55
2023-11-29T16:10:39.361Z,5.25
2023-11-29T16:13:06.694Z,5.95
2023-11-29T16:15:35.659Z,5.88
2023-11-29T16:18:03.208Z,6.07
2023-11-29T16:20:32.877Z,5.70
2023-11-29T16:23:00.186Z,5.97
2023-11-29T16:25:27.879Z,5.90
2023-11-29T16:27:55.272Z,5.38
2023-11-29T16:30:22.804Z,5.32
2023-11-29T16:32:50.499Z,5.47
2023-11-29T16:35:18.577Z,5.53
2023-11-29T16:37:48.468Z,5.50
2023-11-29T16:40:16.073Z,5.05
2023-11-29T16:42:43.473Z,4.53
2023-11-29T16:45:10.961Z,5.28
2023-11-29T16:47:38.366Z,5.68
2023-11-29T16:50:07.116Z,5.43
2023-11-29T16:52:34.565Z,5.85
2023-11-29T16:55:02.617Z,5.43
2023-11-29T16:57:30.006Z,5.72
2023-11-29T16:59:57.333Z,6.22
2023-11-29T17:02:24.833Z,5.32
2023-11-29T17:04:52.370Z,6.10
2023-11-29T17:07:19.757Z,5.13
2023-11-29T17:09:47.200Z,5.10
2023-11-29T17:12:14.610Z,5.53
2023-11-29T17:14:42.006Z,5.47
2023-11-29T17:17:09.650Z,5.90
2023-11-29T17:19:36.998Z,5.28
2023-11-29T17:22:04.699Z,5.25
2023-11-29T17:24:32.167Z,5.05
2023-11-29T17:26:59.623Z,5.05
2023-11-29T17:29:27.014Z,5.18
2023-11-29T17:31:54.928Z,5.50
2023-11-29T17:34:22.245Z,5.22
2023-11-29T17:36:49.727Z,5.45
2023-11-29T17:39:17.136Z,5.45
2023-11-29T17:41:44.497Z,5.88
2023-11-29T17:44:13.123Z,5.88
2023-11-29T17:46:40.471Z,6.70
2023-11-29T17:49:08.012Z,5.75
2023-11-29T17:51:35.329Z,5.38
2023-11-29T17:54:02.695Z,5.18
2023-11-29T17:56:36.642Z,5.35
2023-11-29T17:59:13.583Z,5.60
2023-11-29T18:01:42.801Z,5.85
2023-11-29T18:04:11.078Z,5.50
2023-11-29T18:06:39.232Z,5.93
2023-11-29T18:09:06.891Z,6.07
2023-11-29T18:11:34.314Z,6.50
2023-11-29T18:14:01.801Z,5.63
2023-11-29T18:16:30.239Z,5.07
2023-11-29T18:18:58.788Z,6.45
2023-11-29T18:21:26.288Z,4.60
2023-11-29T18:23:54.721Z,6.13
2023-11-29T18:26:22.088Z,6.60
2023-11-29T18:28:51.916Z,5.57
2023-11-29T18:31:19.618Z,5.68
2023-11-29T18:33:47.271Z,6.35
2023-11-29T18:36:15.978Z,5.40
2023-11-29T18:38:44.056Z,5.65
2023-11-29T18:41:11.617Z,5.32
2023-11-29T18:43:39.006Z,5.95
2023-11-29T18:46:09.378Z,6.13
2023-11-29T18:48:36.993Z,6.28
2023-11-29T18:51:04.436Z,6.13
2023-11-29T18:53:31.809Z,6.00
2023-11-29T18:55:59.693Z,6.57
2023-11-29T18:58:27.158Z,5.80
2023-11-29T19:00:54.573Z,6.13
2023-11-29T19:03:22.253Z,5.78
2023-11-29T19:05:49.857Z,5.90
2023-11-29T19:08:17.213Z,6.20
2023-11-29T19:10:44.904Z,5.80
2023-11-29T19:13:12.268Z,7.38
2023-11-29T19:15:39.664Z,6.75
2023-11-29T19:18:07.158Z,6.20
2023-11-29T19:20:34.968Z,6.07
2023-11-29T19:23:02.443Z,6.78
2023-11-29T19:25:29.702Z,6.78
2023-11-29T19:27:56.985Z,7.15
2023-11-29T19:30:24.741Z,6.53
2023-11-29T19:32:52.159Z,7.20
2023-11-29T19:35:25.815Z,6.80
2023-11-29T19:37:58.149Z,7.35
2023-11-29T19:40:25.552Z,6.60
2023-11-29T19:42:52.879Z,6.68
2023-11-29T19:45:21.174Z,7.03
2023-11-29T19:47:48.645Z,6.53
2023-11-29T19:50:16.371Z,6.55
2023-11-29T19:52:48.312Z,6.85
2023-11-29T19:55:22.829Z,7.03
2023-11-29T19:57:50.138Z,7.30
2023-11-29T20:00:17.903Z,6.25
2023-11-29T20:02:45.265Z,7.28
2023-11-29T20:05:12.607Z,7.55
2023-11-29T20:07:40.638Z,7.20
2023-11-29T20:10:08.322Z,7.32
2023-11-29T20:12:35.653Z,7.30
2023-11-29T20:15:03.165Z,7.53
2023-11-29T20:17:30.550Z,7.43
2023-11-29T20:20:03.773Z,7.40
2023-11-29T20:22:34.452Z,7.13
2023-11-29T20:25:02.230Z,7.72
2023-11-29T20:27:29.601Z,7.63
2023-11-29T20:29:57.052Z,7.20
2023-11-29T20:32:24.584Z,6.95
2023-11-29T20:35:08.658Z,7.03
2023-11-29T20:37:39.431Z,7.20
2023-11-29T20:40:07.596Z,7.00
2023-11-29T20:42:36.399Z,7.60
2023-11-29T20:45:04.519Z,7.88
2023-11-29T20:47:32.089Z,7.20
2023-11-29T20:49:59.602Z,7.45
2023-11-29T20:52:27.028Z,7.38
2023-11-29T20:54:54.842Z,6.82
2023-11-29T20:57:23.582Z,7.65
2023-11-29T20:59:51.308Z,7.35
2023-11-29T21:02:18.697Z,8.52
2023-11-29T21:04:46.196Z,7.82
2023-11-29T21:07:13.871Z,8.00
2023-11-29T21:09:41.533Z,7.72
2023-11-29T21:12:09.509Z,8.18
2023-11-29T21:14:36.876Z,7.75
2023-11-29T21:17:05.506Z,7.43
2023-11-29T21:19:33.102Z,8.50
2023-11-29T21:22:27.675Z,8.55
2023-11-29T21:24:53.714Z,7.68
2023-11-29T21:27:36.995Z,7.93
2023-11-29T21:30:05.019Z,8.00
2023-11-29T21:32:32.388Z,8.05
2023-11-29T21:34:59.755Z,7.60
2023-11-29T21:37:27.097Z,7.90
2023-11-29T21:39:54.410Z,7.80
2023-11-29T21:42:21.690Z,7.65
2023-11-29T21:44:49.104Z,8.10
2023-11-29T21:47:17.594Z,7.80
2023-11-29T21:49:48.696Z,7.27
2023-11-29T21:52:16.084Z,7.32
2023-11-29T21:54:43.384Z,6.35
2023-11-29T21:57:10.828Z,7.65
2023-11-29T21:59:38.176Z,8.02
2023-11-29T22:02:05.581Z,7.30
2023-11-29T22:04:32.980Z,8.23
2023-11-29T22:07:01.045Z,8.07
2023-11-29T22:09:28.830Z,7.57
2023-11-29T22:11:57.028Z,8.18
2023-11-29T22:14:26.450Z,7.32
2023-11-29T22:16:54.605Z,7.68
2023-11-29T22:19:22.005Z,7.28
2023-11-29T22:21:49.268Z,7.88
2023-11-29T22:24:16.580Z,7.25
2023-11-29T22:26:52.259Z,7.80
2023-11-29T22:29:26.290Z,7.95
2023-11-29T22:31:54.981Z,7.80
2023-11-29T22:34:22.651Z,8.07
2023-11-29T22:36:50.796Z,8.40
2023-11-29T22:39:18.326Z,7.72
2023-11-29T22:41:45.877Z,7.45
2023-11-29T22:44:13.253Z,7.82
2023-11-29T22:46:41.210Z,7.53
2023-11-29T22:49:09.016Z,8.18
2023-11-29T22:51:37.211Z,7.47
2023-11-29T22:54:05.639Z,7.95
2023-11-29T22:56:37.131Z,7.43
2023-11-29T22:59:06.009Z,8.15
2023-11-29T23:01:34.316Z,8.25
2023-11-29T23:04:03.900Z,7.63
2023-11-29T23:06:32.743Z,8.93
2023-11-29T23:09:00.819Z,9.48
2023-11-29T23:11:28.226Z,9.15
2023-11-29T23:13:55.882Z,9.35
2023-11-29T23:16:23.342Z,10.23
2023-11-29T23:18:50.768Z,9.57
2023-11-29T23:21:18.422Z,10.65
2023-11-29T23:23:46.839Z,9.00
2023-11-29T23:26:14.415Z,10.00
2023-11-29T23:28:41.616Z,9.20
2023-11-29T23:31:09.309Z,9.45
2023-11-29T23:33:36.772Z,9.93
2023-11-29T23:36:07.758Z,10.52
2023-11-29T23:38:36.313Z,10.00
2023-11-29T23:41:03.741Z,10.88
2023-11-29T23:43:31.189Z,10.13
2023-11-29T23:45:59.037Z,9.35
2023-11-29T23:48:26.613Z,9.98
2023-11-29T23:50:54.062Z,10.23
2023-11-29T23:53:21.398Z,9.32
2023-11-29T23:55:48.714Z,9.75
2023-11-29T23:58:16.480Z,9.18
